Time;durP1;ratioP1;P1;durP2;ratioP2;P2;SDS_P1;SDS_P2;PMS_P1;PMS_P2;Temp;Humidity;BMP_temperature;BMP_pressure;BME280_temperature;BME280_humidity;BME280_pressure;Samples;Min_cycle;Max_cycle;Signal;HPM_P1;HPM_P2
2023/03/10 00:00:41;;;;;;;24.80;17.13;;;;;;;13.41;60.18;99561.97;5063554;28;20425;-80
2023/03/10 00:03:35;;;;;;;30.52;17.85;;;;;;;13.47;60.31;99555.84;5081210;28;20051;-79
2023/03/10 00:06:26;;;;;;;26.40;17.67;;;;;;;13.22;60.17;99560.03;5092391;28;20680;-80
2023/03/10 00:09:20;;;;;;;24.27;17.38;;;;;;;13.13;60.50;99554.03;5076508;28;20047;-80
2023/03/10 00:12:15;;;;;;;27.83;17.80;;;;;;;13.21;60.19;99550.25;5077988;28;20044;-80
2023/03/10 00:15:10;;;;;;;23.70;13.23;;;;;;;13.21;60.02;99542.88;5075924;28;20047;-81
2023/03/10 00:18:05;;;;;;;25.42;16.85;;;;;;;13.28;60.15;99540.28;5078688;28;20052;-79
2023/03/10 00:20:58;;;;;;;18.55;12.45;;;;;;;13.25;60.17;99535.56;5076590;28;20039;-80
2023/03/10 00:23:52;;;;;;;29.40;16.40;;;;;;;13.25;60.38;99529.31;5062969;22;20044;-78
2023/03/10 00:26:44;;;;;;;20.10;13.55;;;;;;;13.27;60.05;99530.50;5062155;28;20044;-80
2023/03/10 00:29:39;;;;;;;27.15;18.65;;;;;;;13.12;60.15;99538.78;5059625;28;20040;-80
2023/03/10 00:32:32;;;;;;;25.20;16.83;;;;;;;12.94;60.62;99532.97;5068174;28;20044;-79
2023/03/10 00:35:28;;;;;;;29.75;18.23;;;;;;;12.94;60.16;99530.25;5068210;28;20044;-81
2023/03/10 00:38:23;;;;;;;25.00;16.60;;;;;;;12.86;59.40;99525.78;5034918;28;20413;-80
2023/03/10 00:41:19;;;;;;;27.83;16.98;;;;;;;12.84;59.59;99531.59;5038372;28;20608;-79
2023/03/10 00:44:13;;;;;;;29.58;16.88;;;;;;;12.80;60.27;99533.44;5034760;28;20069;-80
2023/03/10 00:47:06;;;;;;;31.73;18.33;;;;;;;12.68;61.97;99530.88;5039975;28;20535;-81
2023/03/10 00:50:01;;;;;;;30.40;18.30;;;;;;;12.66;61.91;99535.88;5047941;28;20064;-79
2023/03/10 00:52:53;;;;;;;22.23;14.55;;;;;;;12.64;61.71;99527.28;5047317;28;20659;-80
2023/03/10 00:56:00;;;;;;;29.42;18.27;;;;;;;12.57;61.55;99518.16;5029090;28;20426;-80
2023/03/10 00:58:54;;;;;;;32.53;19.00;;;;;;;12.50;61.57;99510.59;5025833;28;20056;-78
2023/03/10 01:01:49;;;;;;;41.43;19.93;;;;;;;12.43;62.11;99505.03;5052822;28;20044;-79
2023/03/10 01:04:41;;;;;;;33.63;18.30;;;;;;;12.46;62.01;99495.31;5023767;28;20286;-77
2023/03/10 01:07:36;;;;;;;30.90;14.80;;;;;;;12.34;61.44;99482.63;5019886;28;20430;-79
2023/03/10 01:10:30;;;;;;;31.50;17.73;;;;;;;12.38;61.29;99489.75;5022850;28;20045;-77
2023/03/10 01:13:24;;;;;;;36.37;18.73;;;;;;;12.27;62.10;99487.91;5020278;28;20125;-77
2023/03/10 01:16:19;;;;;;;39.60;21.30;;;;;;;12.10;63.02;99488.31;5018366;28;20052;-78
2023/03/10 01:19:14;;;;;;;42.67;20.63;;;;;;;12.20;62.70;99468.66;5033344;28;20053;-79
2023/03/10 01:22:08;;;;;;;30.63;16.73;;;;;;;12.22;62.13;99469.13;5032825;28;20272;-78
2023/03/10 01:24:58;;;;;;;37.35;21.85;;;;;;;12.07;62.70;99459.84;5023178;28;20052;-79
2023/03/10 01:27:53;;;;;;;38.53;20.70;;;;;;;12.18;62.09;99454.63;5020683;28;20070;-79
2023/03/10 01:30:47;;;;;;;33.70;19.47;;;;;;;12.14;62.40;99445.59;5028339;28;20044;-79
2023/03/10 01:33:39;;;;;;;39.83;22.98;;;;;;;12.06;62.50;99450.09;5021625;28;20053;-78
2023/03/10 01:36:34;;;;;;;39.78;21.90;;;;;;;12.11;61.87;99438.13;5019947;28;20044;-78
2023/03/10 01:39:28;;;;;;;37.20;21.00;;;;;;;12.06;61.95;99446.56;5022152;28;20074;-80
2023/03/10 01:42:23;;;;;;;33.70;22.10;;;;;;;12.07;61.82;99439.97;5050125;28;20044;-80
2023/03/10 01:45:22;;;;;;;40.93;22.50;;;;;;;11.98;62.14;99443.69;5041411;28;20645;-80
2023/03/10 01:48:17;;;;;;;36.97;21.38;;;;;;;11.90;62.21;99439.22;5032694;28;20040;-80
2023/03/10 01:51:12;;;;;;;36.80;22.20;;;;;;;11.87;62.12;99420.88;5038735;28;20060;-78
2023/03/10 01:54:10;;;;;;;31.33;16.37;;;;;;;11.83;62.65;99409.13;5037657;28;20052;-79
2023/03/10 01:57:04;;;;;;;38.20;22.88;;;;;;;11.94;62.46;99401.16;5044052;28;20108;-79
2023/03/10 01:59:59;;;;;;;32.50;21.75;;;;;;;11.89;62.00;99396.78;5051873;28;20414;-78
2023/03/10 02:03:17;;;;;;;37.60;20.83;;;;;;;11.89;62.07;99394.06;5036363;28;20536;-78
2023/03/10 02:06:18;;;;;;;45.13;20.30;;;;;;;11.73;62.03;99381.63;5018647;28;20164;-80
2023/03/10 02:09:17;;;;;;;39.45;20.23;;;;;;;11.66;61.85;99371.34;5040402;28;20044;-79
2023/03/10 02:12:09;;;;;;;;;;;;;;;11.65;61.68;99382.56;5018754;28;20569;-80
2023/03/10 02:15:03;;;;;;;37.50;21.90;;;;;;;11.66;61.81;99386.88;5037349;28;19913;-79
2023/03/10 02:17:56;;;;;;;37.78;20.35;;;;;;;11.65;62.19;99379.84;5019903;28;20113;-79
2023/03/10 02:21:24;;;;;;;39.78;21.13;;;;;;;11.67;62.61;99372.13;5017212;28;20045;-78
2023/03/10 02:24:36;;;;;;;41.17;21.67;;;;;;;11.68;62.83;99371.00;5017548;28;20048;-80
2023/03/10 02:27:29;;;;;;;31.25;19.60;;;;;;;11.68;62.89;99357.38;5022090;28;20052;-79
2023/03/10 02:30:28;;;;;;;34.03;20.67;;;;;;;11.71;62.58;99362.91;5019813;28;20056;-79
2023/03/10 02:33:24;;;;;;;31.83;21.20;;;;;;;11.63;62.77;99361.13;5017159;28;20049;-80
2023/03/10 02:36:23;;;;;;;34.67;21.02;;;;;;;11.63;62.96;99365.81;5020617;28;20048;-79
2023/03/10 02:39:15;;;;;;;37.80;20.80;;;;;;;11.60;63.06;99361.88;5018293;28;20065;-79
2023/03/10 02:42:08;;;;;;;36.50;20.75;;;;;;;11.70;62.27;99361.31;5021585;28;20052;-79
2023/03/10 02:45:03;;;;;;;36.60;21.10;;;;;;;11.60;63.03;99359.13;5029567;28;20068;-79
2023/03/10 02:47:58;;;;;;;38.67;21.60;;;;;;;11.78;62.50;99360.38;5017219;28;20072;-79
2023/03/10 02:50:51;;;;;;;38.53;20.58;;;;;;;11.71;62.45;99357.44;5040675;28;20052;-79
2023/03/10 02:53:46;;;;;;;38.00;22.02;;;;;;;11.80;62.71;99343.66;5036132;28;20048;-80
2023/03/10 02:56:42;;;;;;;32.45;20.65;;;;;;;11.79;63.16;99342.06;5035748;28;20076;-80
2023/03/10 02:59:36;;;;;;;34.88;21.90;;;;;;;11.79;63.01;99337.41;5041596;28;20060;-78
2023/03/10 03:02:28;;;;;;;34.25;21.30;;;;;;;11.67;63.40;99334.00;5038053;28;20036;-79
2023/03/10 03:05:23;;;;;;;38.47;20.27;;;;;;;11.77;63.10;99322.59;5041007;28;20035;-79
2023/03/10 03:08:18;;;;;;;44.10;22.03;;;;;;;11.91;63.07;99326.41;5039922;28;20048;-77
2023/03/10 03:11:13;;;;;;;30.15;17.08;;;;;;;11.92;63.24;99319.81;5039400;28;20044;-78
2023/03/10 03:14:07;;;;;;;38.93;24.60;;;;;;;11.92;63.27;99314.34;5020815;28;20056;-78
2023/03/10 03:17:02;;;;;;;29.77;16.13;;;;;;;11.86;63.81;99304.88;5036940;28;20064;-78
2023/03/10 03:19:57;;;;;;;39.70;22.30;;;;;;;11.87;63.91;99295.56;5041922;28;20040;-78
2023/03/10 03:23:02;;;;;;;39.50;21.92;;;;;;;11.96;63.60;99298.88;5052031;28;20044;-78
2023/03/10 03:25:58;;;;;;;40.08;23.02;;;;;;;12.02;63.72;99299.38;5042797;28;20417;-77
2023/03/10 03:28:54;;;;;;;39.75;21.83;;;;;;;11.99;63.91;99297.34;5040741;28;20052;-78
2023/03/10 03:31:48;;;;;;;36.65;23.17;;;;;;;12.03;63.84;99300.16;5051062;28;20044;-78
2023/03/10 03:34:47;;;;;;;40.25;22.48;;;;;;;12.20;63.37;99296.97;5053084;28;20048;-79
2023/03/10 03:37:42;;;;;;;34.67;21.60;;;;;;;12.16;63.75;99296.13;5054937;28;20072;-79
2023/03/10 03:40:38;;;;;;;37.25;21.58;;;;;;;12.19;63.76;99289.97;5060516;28;20044;-77
2023/03/10 03:43:33;;;;;;;33.83;21.63;;;;;;;12.11;64.41;99274.63;5055388;28;20402;-79
2023/03/10 03:46:28;;;;;;;36.05;23.05;;;;;;;12.11;64.22;99278.13;5050788;28;20044;-78
2023/03/10 03:49:23;;;;;;;26.48;16.77;;;;;;;12.17;63.85;99273.19;5044380;28;20043;-77
2023/03/10 03:52:17;;;;;;;37.37;23.10;;;;;;;12.14;64.05;99276.66;5039045;28;20445;-77
2023/03/10 03:55:13;;;;;;;40.42;22.02;;;;;;;12.04;64.31;99277.22;5069112;28;20048;-79
2023/03/10 03:58:08;;;;;;;38.53;23.20;;;;;;;12.09;64.87;99279.66;5067701;28;20044;-77
2023/03/10 04:01:02;;;;;;;33.05;19.15;;;;;;;12.32;64.06;99267.63;5041439;28;20036;-78
2023/03/10 04:03:59;;;;;;;36.20;23.00;;;;;;;12.29;63.51;99262.13;5038912;28;20036;-78
2023/03/10 04:06:54;;;;;;;36.92;22.20;;;;;;;12.11;64.57;99264.50;5049568;28;20040;-79
2023/03/10 04:09:49;;;;;;;47.72;23.13;;;;;;;12.13;64.46;99267.69;5051957;28;20056;-78
2023/03/10 04:12:44;;;;;;;39.67;22.13;;;;;;;12.02;65.08;99263.16;5041086;28;20040;-77
2023/03/10 04:15:38;;;;;;;39.67;23.85;;;;;;;12.16;64.35;99263.44;5054360;28;20044;-78
2023/03/10 04:18:33;;;;;;;34.20;22.00;;;;;;;12.15;64.52;99254.47;5040179;28;20051;-78
2023/03/10 04:21:28;;;;;;;30.15;17.58;;;;;;;12.20;64.25;99254.16;5036876;28;20537;-77
2023/03/10 04:24:23;;;;;;;49.90;24.98;;;;;;;12.24;64.24;99252.28;5039883;28;20048;-78
2023/03/10 04:27:17;;;;;;;42.42;22.60;;;;;;;12.24;64.21;99251.53;5036796;28;20068;-78
2023/03/10 04:30:13;;;;;;;40.00;21.88;;;;;;;12.24;64.05;99252.28;5041704;28;20044;-77
2023/03/10 04:33:10;;;;;;;33.65;21.90;;;;;;;12.19;64.28;99238.97;5038333;28;20064;-78
2023/03/10 04:36:06;;;;;;;38.17;23.33;;;;;;;12.21;64.02;99233.94;5038117;28;20044;-79
2023/03/10 04:39:01;;;;;;;38.42;22.23;;;;;;;12.19;64.28;99225.34;5041385;28;20044;-78
2023/03/10 04:41:56;;;;;;;39.70;18.25;;;;;;;12.26;64.22;99211.84;5038026;28;20037;-78
2023/03/10 04:44:51;;;;;;;34.20;20.97;;;;;;;12.28;64.13;99206.03;5042773;28;20052;-77
2023/03/10 04:47:46;;;;;;;39.92;22.80;;;;;;;12.29;64.24;99204.91;5040256;28;20040;-77
2023/03/10 04:50:41;;;;;;;26.33;17.23;;;;;;;12.30;63.71;99198.25;5035907;28;20039;-78
2023/03/10 04:53:34;;;;;;;57.00;21.65;;;;;;;12.33;63.92;99192.91;5039305;28;20040;-79
2023/03/10 04:56:28;;;;;;;27.80;17.30;;;;;;;12.29;63.99;99186.56;5051691;28;20051;-79
2023/03/10 04:59:23;;;;;;;40.07;22.10;;;;;;;12.27;64.31;99169.03;5040704;28;20052;-79
2023/03/10 05:02:16;;;;;;;41.28;22.77;;;;;;;12.23;64.06;99155.34;5039936;28;20282;-77
2023/03/10 05:05:11;;;;;;;39.13;22.58;;;;;;;12.35;63.93;99151.63;5036203;28;20048;-78
2023/03/10 05:08:07;;;;;;;37.92;21.52;;;;;;;12.30;64.07;99157.38;5041355;28;20075;-77
2023/03/10 05:11:02;;;;;;;38.63;21.70;;;;;;;12.33;63.89;99143.03;5053003;28;20405;-78
2023/03/10 05:13:56;;;;;;;52.92;22.48;;;;;;;12.37;63.86;99122.06;5041063;28;20704;-77
2023/03/10 05:16:51;;;;;;;43.33;17.67;;;;;;;12.36;63.55;99120.50;5036078;28;20063;-78
2023/03/10 05:19:46;;;;;;;35.55;20.58;;;;;;;12.24;64.23;99145.25;5039273;28;20033;-78
2023/03/10 05:22:40;;;;;;;30.53;20.97;;;;;;;12.27;64.12;99141.78;5051504;28;20055;-81
2023/03/10 05:25:35;;;;;;;33.58;21.63;;;;;;;12.18;64.08;99141.25;5065675;28;20040;-78
2023/03/10 05:28:30;;;;;;;33.42;20.88;;;;;;;12.13;64.13;99131.44;5040180;28;20043;-79
2023/03/10 05:31:25;;;;;;;27.38;16.33;;;;;;;12.08;64.12;99136.41;5039630;28;20405;-77
2023/03/10 05:34:19;;;;;;;41.58;20.55;;;;;;;11.94;64.49;99124.09;5036059;28;20040;-78
2023/03/10 05:37:11;;;;;;;38.80;21.33;;;;;;;11.92;64.64;99122.88;5037896;28;20796;-79
2023/03/10 05:40:06;;;;;;;39.35;21.65;;;;;;;12.07;64.18;99129.38;5033921;28;20057;-79
2023/03/10 05:43:02;;;;;;;49.40;21.60;;;;;;;12.02;64.41;99126.94;5039944;28;20052;-78
2023/03/10 05:46:03;;;;;;;38.63;22.52;;;;;;;11.97;64.37;99126.09;5045647;28;20100;-78
2023/03/10 05:48:56;;;;;;;47.33;22.67;;;;;;;11.97;64.57;99115.22;5031978;28;20413;-79
2023/03/10 05:51:51;;;;;;;42.30;22.83;;;;;;;11.99;64.29;99121.06;5049713;28;20045;-79
2023/03/10 05:54:46;;;;;;;40.97;21.48;;;;;;;11.93;64.90;99117.09;5037433;28;20425;-79
2023/03/10 05:57:40;;;;;;;39.33;21.73;;;;;;;11.99;64.58;99118.34;5040935;28;20047;-80
2023/03/10 06:00:32;;;;;;;46.53;22.33;;;;;;;12.00;64.68;99119.91;5043658;28;20290;-79
2023/03/10 06:03:27;;;;;;;35.13;21.60;;;;;;;12.04;64.31;99113.75;5035409;28;20048;-80
2023/03/10 06:06:19;;;;;;;40.08;21.92;;;;;;;11.96;64.43;99108.19;5050444;28;20064;-80
2023/03/10 06:09:13;;;;;;;40.75;21.85;;;;;;;11.89;64.55;99096.34;5039562;28;20068;-80
2023/03/10 06:12:08;;;;;;;42.63;22.83;;;;;;;11.82;65.30;99097.03;5048161;28;20068;-80
2023/03/10 06:15:00;;;;;;;58.05;25.27;;;;;;;11.87;64.97;99102.19;5038195;28;20064;-81
2023/03/10 06:17:55;;;;;;;34.67;19.80;;;;;;;11.93;65.31;99110.84;5023764;28;20041;-79
2023/03/10 06:20:47;;;;;;;45.63;22.60;;;;;;;11.97;65.18;99109.75;5032688;28;20044;-79
2023/03/10 06:23:43;;;;;;;48.30;22.73;;;;;;;12.05;65.04;99104.41;5096986;23;20063;-84
2023/03/10 06:26:35;;;;;;;36.40;21.88;;;;;;;12.14;64.43;99103.00;5067011;28;21279;-84
2023/03/10 06:29:30;;;;;;;47.97;23.23;;;;;;;12.13;64.85;99106.91;5070293;28;20052;-84
2023/03/10 06:32:24;;;;;;;41.50;20.67;;;;;;;12.15;65.35;99106.53;5067660;28;20298;-84
2023/03/10 06:35:19;;;;;;;46.50;21.35;;;;;;;12.13;65.08;99111.56;5074547;28;20405;-84
2023/03/10 06:38:14;;;;;;;45.07;24.53;;;;;;;12.13;65.10;99097.94;5074311;28;20063;-85
2023/03/10 06:41:06;;;;;;;47.83;26.90;;;;;;;12.08;65.54;99112.66;5074307;28;20289;-84
2023/03/10 06:43:58;;;;;;;93.15;25.95;;;;;;;12.12;65.63;99108.06;5082425;28;20044;-84
2023/03/10 06:46:50;;;;;;;39.40;22.77;;;;;;;12.07;66.83;99099.41;5074079;28;20409;-83
2023/03/10 06:49:45;;;;;;;42.00;24.85;;;;;;;12.15;66.58;99096.41;5082977;28;20044;-84
2023/03/10 06:52:40;;;;;;;40.40;19.02;;;;;;;12.20;66.68;99098.03;5072406;28;20524;-84
2023/03/10 06:55:34;;;;;;;60.53;23.73;;;;;;;12.19;66.93;99099.97;5069157;28;20063;-84
2023/03/10 06:58:29;;;;;;;57.22;25.05;;;;;;;12.35;66.84;99103.34;5074383;28;20059;-84
2023/03/10 07:01:45;;;;;;;46.22;25.63;;;;;;;12.41;67.30;99090.97;5073630;28;20063;-84
2023/03/10 07:04:40;;;;;;;53.22;22.65;;;;;;;12.50;67.29;99088.00;5087492;28;20055;-84
2023/03/10 07:07:32;;;;;;;33.43;16.40;;;;;;;12.56;67.82;99080.28;5073520;28;20047;-84
2023/03/10 07:10:26;;;;;;;47.58;22.08;;;;;;;12.59;67.84;99080.34;5074067;28;20040;-84
2023/03/10 07:13:21;;;;;;;46.25;22.48;;;;;;;12.68;67.38;99082.81;5070825;28;20397;-83
2023/03/10 07:16:16;;;;;;;41.78;22.02;;;;;;;12.72;67.61;99087.16;5068892;28;20047;-83
2023/03/10 07:19:08;;;;;;;54.67;23.08;;;;;;;12.75;67.30;99082.88;5082170;28;20039;-84
2023/03/10 07:22:02;;;;;;;37.47;22.17;;;;;;;12.74;67.19;99068.47;5070117;28;20062;-83
2023/03/10 07:24:57;;;;;;;44.17;17.17;;;;;;;12.76;67.52;99068.09;5068107;28;20048;-83
2023/03/10 07:27:52;;;;;;;45.20;24.50;;;;;;;12.84;67.50;99062.38;5074089;28;20631;-83
2023/03/10 07:30:44;;;;;;;42.67;20.45;;;;;;;12.85;66.94;99058.47;5062964;28;20048;-80
2023/03/10 07:33:38;;;;;;;32.27;15.07;;;;;;;12.86;67.03;99053.81;5047399;28;20410;-81
2023/03/10 07:36:30;;;;;;;36.53;19.55;;;;;;;12.93;67.04;99050.38;5052070;28;20512;-81
2023/03/10 07:39:25;;;;;;;37.33;19.85;;;;;;;13.03;66.70;99044.28;5045937;28;20059;-81
2023/03/10 07:42:20;;;;;;;28.50;15.32;;;;;;;13.10;66.70;99039.69;5049463;28;20063;-81
2023/03/10 07:45:12;;;;;;;40.95;19.48;;;;;;;13.25;65.74;99040.66;5047551;28;20044;-80
2023/03/10 07:48:06;;;;;;;34.13;18.48;;;;;;;13.41;64.86;99034.97;5051149;28;20052;-80
2023/03/10 07:51:02;;;;;;;27.43;17.17;;;;;;;13.47;64.63;99039.72;5048097;28;20044;-80
2023/03/10 07:53:57;;;;;;;33.58;17.40;;;;;;;13.53;64.58;99031.97;5045860;28;20052;-81
2023/03/10 07:56:51;;;;;;;34.72;19.50;;;;;;;13.67;63.28;99035.59;5060136;28;20048;-80
2023/03/10 07:59:46;;;;;;;30.30;16.87;;;;;;;13.81;63.72;99040.44;5060898;28;20052;-81
2023/03/10 08:02:40;;;;;;;30.90;19.05;;;;;;;13.87;63.86;99036.16;5060124;28;20044;-82
2023/03/10 08:05:35;;;;;;;24.30;13.63;;;;;;;14.13;62.39;99040.66;5051943;28;20385;-80
2023/03/10 08:08:29;;;;;;;33.90;17.17;;;;;;;14.14;62.01;99032.09;5046192;28;20120;-81
2023/03/10 08:11:26;;;;;;;25.73;16.10;;;;;;;14.20;62.03;99035.25;5049050;28;20040;-81
2023/03/10 08:14:22;;;;;;;35.47;18.38;;;;;;;14.33;61.47;99017.34;5045206;28;20060;-81
2023/03/10 08:17:17;;;;;;;27.77;17.77;;;;;;;14.23;62.37;99012.59;5050742;28;20052;-81
2023/03/10 08:20:10;;;;;;;24.63;13.50;;;;;;;14.29;62.31;99011.09;5051041;28;20044;-80
2023/03/10 08:23:04;;;;;;;28.90;17.42;;;;;;;14.39;61.90;99007.66;5048649;28;20290;-82
2023/03/10 08:26:00;;;;;;;19.88;12.88;;;;;;;14.41;61.93;99010.81;5047710;28;20049;-82
2023/03/10 08:28:55;;;;;;;28.50;16.67;;;;;;;14.54;61.34;98998.38;5052271;28;20051;-82
2023/03/10 08:31:49;;;;;;;19.90;11.47;;;;;;;14.64;60.66;98996.84;5059691;28;20048;-81
2023/03/10 08:34:41;;;;;;;26.00;14.07;;;;;;;14.76;60.43;98995.72;5047934;28;20040;-81
2023/03/10 08:37:37;;;;;;;25.33;15.68;;;;;;;14.64;60.32;98987.84;5051539;28;20040;-81
2023/03/10 08:40:32;;;;;;;27.27;13.00;;;;;;;14.70;59.66;98986.31;5049412;28;20044;-81
2023/03/10 08:43:26;;;;;;;18.52;11.55;;;;;;;14.76;59.51;98982.06;5046971;28;20040;-81
2023/03/10 08:46:19;;;;;;;26.20;12.70;;;;;;;14.68;59.60;98977.72;5059276;28;20072;-83
2023/03/10 08:49:14;;;;;;;22.30;12.15;;;;;;;14.86;59.39;98984.84;5047999;28;20044;-81
2023/03/10 08:52:06;;;;;;;19.30;12.68;;;;;;;14.99;59.27;98983.28;5050705;28;20048;-80
2023/03/10 08:54:58;;;;;;;31.75;14.05;;;;;;;15.00;58.86;98995.03;5058143;28;20047;-81
2023/03/10 08:57:53;;;;;;;28.17;13.05;;;;;;;15.13;59.30;98988.03;5050383;28;20100;-81
2023/03/10 09:00:47;;;;;;;28.33;11.75;;;;;;;15.17;59.04;98990.78;5058644;28;20048;-83
2023/03/10 09:03:42;;;;;;;72.40;21.47;;;;;;;15.61;57.78;98993.22;5037474;28;20041;-77
2023/03/10 09:06:34;;;;;;;25.88;11.88;;;;;;;15.92;56.61;98988.91;5035103;28;20065;-78
2023/03/10 09:09:29;;;;;;;23.52;10.90;;;;;;;16.05;56.51;98985.34;5045936;28;20044;-78
2023/03/10 09:12:24;;;;;;;22.95;10.25;;;;;;;16.02;55.35;98980.66;5044401;28;20044;-79
2023/03/10 09:15:18;;;;;;;18.58;9.18;;;;;;;16.14;55.04;98988.50;5049128;28;20516;-80
2023/03/10 09:18:16;;;;;;;20.13;8.03;;;;;;;16.11;55.07;98986.53;5049696;28;20051;-77
2023/03/10 09:21:07;;;;;;;15.52;6.63;;;;;;;16.07;55.03;98979.50;5052317;28;20275;-77
2023/03/10 09:23:59;;;;;;;16.83;8.05;;;;;;;16.21;54.66;98972.03;5052066;28;20052;-78
2023/03/10 09:26:54;;;;;;;17.30;8.38;;;;;;;16.25;54.71;98953.59;5040371;28;20040;-78
2023/03/10 09:29:49;;;;;;;13.90;7.72;;;;;;;16.20;54.71;98953.22;5038187;28;20048;-77
2023/03/10 09:32:41;;;;;;;18.52;7.80;;;;;;;16.17;54.80;98952.06;5049388;28;20052;-77
2023/03/10 09:35:36;;;;;;;14.00;6.68;;;;;;;16.19;54.81;98952.44;5036249;28;20048;-78
2023/03/10 09:38:30;;;;;;;17.73;8.35;;;;;;;16.47;55.14;98951.56;5042353;28;20044;-78
2023/03/10 09:41:36;;;;;;;19.87;8.07;;;;;;;16.64;53.95;98944.47;5038404;28;20044;-78
2023/03/10 09:44:29;;;;;;;;;;;;;;;16.42;53.92;98953.94;5033351;28;20056;-77
2023/03/10 09:47:42;;;;;;;21.88;8.43;;;;;;;16.62;54.41;98950.34;5051067;28;20377;-77
2023/03/10 09:50:48;;;;;;;24.05;9.07;;;;;;;16.66;54.15;98944.84;5031793;28;20053;-77
2023/03/10 09:53:47;;;;;;;;;;;;;;;16.63;53.83;98942.91;5044143;28;20612;-77
2023/03/10 09:56:34;;;;;;;;;;;;;;;16.50;53.79;98937.06;5036255;28;19913;-78
2023/03/10 09:59:42;;;;;;;23.52;8.18;;;;;;;16.59;54.11;98939.41;5070563;28;19912;-77
2023/03/10 10:02:40;;;;;;;15.35;8.25;;;;;;;16.54;54.01;98943.31;5040104;28;20413;-78
2023/03/10 10:05:36;;;;;;;18.00;8.32;;;;;;;16.62;54.72;98939.38;5039310;28;20440;-77
2023/03/10 10:08:40;;;;;;;23.00;9.35;;;;;;;16.65;53.64;98932.31;5039894;28;20044;-77
2023/03/10 10:11:35;;;;;;;16.70;8.60;;;;;;;16.65;53.64;98937.81;5048867;28;20051;-77
2023/03/10 10:14:33;;;;;;;12.00;6.57;;;;;;;16.56;53.75;98937.41;5049161;28;20048;-78
2023/03/10 10:17:33;;;;;;;21.83;8.45;;;;;;;16.55;53.78;98927.63;5049942;28;20120;-77
2023/03/10 10:20:29;;;;;;;23.60;9.27;;;;;;;16.65;53.88;98926.84;5054732;28;20406;-81
2023/03/10 10:23:40;;;;;;;13.38;8.23;;;;;;;16.62;53.73;98924.88;5068288;28;20052;-80
2023/03/10 10:26:34;;;;;;;20.80;8.95;;;;;;;16.40;54.88;98917.91;5051590;28;20048;-80
2023/03/10 10:29:42;;;;;;;21.13;8.73;;;;;;;16.51;55.37;98924.09;5061839;28;20048;-80
2023/03/10 10:32:55;;;;;;;18.90;8.05;;;;;;;16.49;54.08;98921.00;5057875;28;20051;-81
2023/03/10 10:36:08;;;;;;;13.77;7.88;;;;;;;16.61;53.54;98909.59;5047276;28;20068;-80
2023/03/10 10:39:03;;;;;;;16.67;8.38;;;;;;;16.68;53.48;98906.81;5045629;28;20040;-80
2023/03/10 10:42:31;;;;;;;15.55;7.53;;;;;;;16.77;52.95;98896.16;5041928;28;20044;-81
2023/03/10 10:45:43;;;;;;;16.60;6.43;;;;;;;16.88;53.10;98902.38;5050314;28;20045;-81
2023/03/10 10:48:39;;;;;;;9.30;5.82;;;;;;;16.89;52.71;98897.69;5052973;28;20520;-81
2023/03/10 10:51:34;;;;;;;15.30;6.75;;;;;;;16.94;52.24;98902.75;5035386;28;20119;-81
2023/03/10 10:54:38;;;;;;;19.63;7.53;;;;;;;16.93;52.47;98904.72;5051306;28;20044;-81
2023/03/10 10:57:37;;;;;;;14.15;6.57;;;;;;;17.07;52.22;98912.06;5058932;28;20048;-82
2023/03/10 11:00:36;;;;;;;14.18;6.18;;;;;;;17.06;51.79;98905.03;5055373;28;20052;-81
2023/03/10 11:03:47;;;;;;;12.25;5.72;;;;;;;17.04;51.87;98913.66;5053838;28;20589;-81
2023/03/10 11:06:42;;;;;;;12.60;5.93;;;;;;;17.16;52.21;98906.16;5039134;28;20048;-81
2023/03/10 11:09:34;;;;;;;15.32;6.65;;;;;;;17.20;51.46;98904.16;5039754;28;20044;-81
2023/03/10 11:12:36;;;;;;;14.45;7.30;;;;;;;17.22;51.76;98899.03;5058257;28;20052;-80
2023/03/10 11:15:53;;;;;;;13.80;5.40;;;;;;;17.28;51.77;98905.66;5057093;28;20044;-80
2023/03/10 11:19:19;;;;;;;22.45;5.68;;;;;;;17.41;51.54;98904.00;5033672;28;20528;-80
2023/03/10 11:22:24;;;;;;;6.28;3.63;;;;;;;17.53;50.99;98885.03;5050586;28;20059;-80
2023/03/10 11:25:31;;;;;;;13.15;6.55;;;;;;;17.53;50.31;98887.78;5059973;28;20047;-80
2023/03/10 11:28:51;;;;;;;12.13;5.20;;;;;;;17.67;50.55;98895.16;5035172;28;20044;-80
2023/03/10 11:31:53;;;;;;;11.60;5.82;;;;;;;17.51;50.91;98892.91;5030037;28;20049;-80
2023/03/10 11:34:50;;;;;;;16.30;5.78;;;;;;;17.73;51.05;98889.97;5040074;28;20048;-80
2023/03/10 11:37:53;;;;;;;10.73;4.65;;;;;;;17.86;50.48;98885.53;5042480;28;20044;-80
2023/03/10 11:40:52;;;;;;;11.23;5.15;;;;;;;17.92;50.91;98887.44;5063042;28;20048;-81
2023/03/10 11:44:00;;;;;;;11.43;4.45;;;;;;;18.18;50.61;98880.47;5051113;28;20043;-81
2023/03/10 11:47:05;;;;;;;17.15;5.82;;;;;;;18.21;50.35;98873.34;5050056;28;20044;-81
2023/03/10 11:50:25;;;;;;;15.38;4.85;;;;;;;18.29;49.50;98861.06;5046230;28;20040;-81
2023/03/10 11:53:48;;;;;;;16.10;5.22;;;;;;;18.30;49.66;98849.66;5050064;28;20314;-81
2023/03/10 11:56:43;;;;;;;20.17;5.43;;;;;;;18.50;49.31;98849.78;5067264;28;20055;-81
2023/03/10 11:59:42;;;;;;;16.83;6.05;;;;;;;18.46;49.08;98846.31;5047604;28;20044;-81
2023/03/10 12:02:52;;;;;;;15.10;6.38;;;;;;;18.51;48.48;98837.59;5046152;28;20052;-81
2023/03/10 12:06:17;;;;;;;11.52;5.95;;;;;;;18.71;48.51;98838.50;5063961;28;20052;-81
2023/03/10 12:09:22;;;;;;;12.10;5.50;;;;;;;18.79;48.10;98837.22;5032138;28;20044;-81
2023/03/10 12:12:27;;;;;;;12.98;5.10;;;;;;;18.81;47.94;98842.31;5045927;28;20044;-81
2023/03/10 12:15:25;;;;;;;21.50;7.40;;;;;;;18.79;47.27;98830.94;5044081;28;20109;-81
2023/03/10 12:18:20;;;;;;;13.85;6.85;;;;;;;18.82;47.36;98818.31;5029916;28;20048;-81
2023/03/10 12:21:18;;;;;;;15.88;6.28;;;;;;;19.06;47.07;98819.88;5040582;28;20544;-81
2023/03/10 12:24:46;;;;;;;26.98;6.53;;;;;;;19.00;47.04;98821.53;5041400;28;20041;-81
2023/03/10 12:28:12;;;;;;;16.17;6.72;;;;;;;18.96;47.01;98812.56;5062518;28;20052;-80
2023/03/10 12:31:05;;;;;;;15.13;6.38;;;;;;;19.01;46.39;98820.34;5039527;28;20808;-82
2023/03/10 12:34:13;;;;;;;11.02;5.60;;;;;;;18.98;46.81;98808.22;5046650;28;20041;-81
2023/03/10 12:37:23;;;;;;;11.65;5.63;;;;;;;19.09;46.63;98802.53;5050293;28;20517;-81
2023/03/10 12:40:51;;;;;;;12.75;6.32;;;;;;;19.02;46.39;98797.13;5057336;28;20056;-81
2023/03/10 12:44:12;;;;;;;8.13;5.82;;;;;;;18.89;46.37;98801.69;5044613;28;20036;-81
2023/03/10 12:47:31;;;;;;;9.10;5.55;;;;;;;18.96;46.56;98801.53;5022617;28;20044;-81
2023/03/10 12:50:51;;;;;;;15.82;6.75;;;;;;;18.97;45.93;98803.09;5063922;28;20155;-81
2023/03/10 12:54:24;;;;;;;12.45;5.63;;;;;;;18.95;46.53;98799.97;5049379;28;20048;-81
2023/03/10 12:57:40;;;;;;;13.73;5.63;;;;;;;19.00;45.78;98785.72;5029392;28;20044;-81
2023/03/10 13:00:37;;;;;;;14.20;5.68;;;;;;;19.00;46.08;98782.97;5029162;28;20053;-81
2023/03/10 13:03:31;;;;;;;29.75;5.88;;;;;;;18.97;45.89;98789.34;5048631;28;20047;-82
2023/03/10 13:06:35;;;;;;;14.13;5.65;;;;;;;19.08;45.71;98773.41;5048114;28;20413;-81
2023/03/10 13:09:30;;;;;;;15.07;6.00;;;;;;;18.98;45.29;98777.91;5046240;28;20513;-81
2023/03/10 13:12:28;;;;;;;24.17;7.05;;;;;;;19.09;45.81;98788.75;5054947;28;20051;-81
2023/03/10 13:15:32;;;;;;;12.48;5.65;;;;;;;19.15;45.75;98781.53;5058254;28;20052;-80
2023/03/10 13:18:30;;;;;;;16.20;5.28;;;;;;;19.14;45.64;98789.06;5048214;28;20056;-81
2023/03/10 13:21:49;;;;;;;16.17;6.18;;;;;;;19.22;45.21;98789.69;5053519;28;20048;-81
2023/03/10 13:24:44;;;;;;;12.73;6.38;;;;;;;19.21;45.31;98788.13;5058776;28;20413;-81
2023/03/10 13:27:38;;;;;;;21.13;6.38;;;;;;;19.29;44.38;98777.78;5048540;28;20048;-81
2023/03/10 13:30:33;;;;;;;23.75;4.93;;;;;;;19.27;44.72;98783.72;5047563;28;20509;-80
2023/03/10 13:33:26;;;;;;;15.38;4.97;;;;;;;19.25;44.91;98777.81;5042854;28;20047;-80
2023/03/10 13:36:31;;;;;;;16.58;5.75;;;;;;;19.27;44.44;98775.44;5055113;28;20044;-80
2023/03/10 13:39:26;;;;;;;35.10;5.68;;;;;;;19.19;43.63;98774.03;5051179;28;20048;-81
2023/03/10 13:42:29;;;;;;;14.65;5.22;;;;;;;19.23;44.21;98780.25;5058713;28;20049;-80